Time;durP1;ratioP1;P1;durP2;ratioP2;P2;SDS_P1;SDS_P2;PMS_P1;PMS_P2;Temp;Humidity;BMP_temperature;BMP_pressure;BME280_temperature;BME280_humidity;BME280_pressure;Samples;Min_cycle;Max_cycle;Signal;HPM_P1;HPM_P2
2021/09/18 00:00:15;;;;;;;6.15;4.35;;;17.70;99.90;;;;;;5072312;28;20217;-73
2021/09/18 00:02:42;;;;;;;4.60;3.97;;;17.60;99.90;;;;;;5072306;28;20206;-74
2021/09/18 00:05:10;;;;;;;6.10;4.93;;;17.50;99.90;;;;;;5071585;28;20316;-75
2021/09/18 00:07:37;;;;;;;5.45;4.72;;;17.50;99.90;;;;;;5072542;28;20202;-75
2021/09/18 00:10:07;;;;;;;6.78;5.50;;;17.50;99.90;;;;;;5071830;28;20214;-74
2021/09/18 00:12:34;;;;;;;4.78;4.30;;;17.60;99.90;;;;;;5072040;28;20213;-74
2021/09/18 00:15:02;;;;;;;5.60;5.00;;;17.50;99.90;;;;;;5071478;28;20748;-74
2021/09/18 00:17:29;;;;;;;4.78;4.28;;;17.50;99.90;;;;;;5071827;28;20313;-74
2021/09/18 00:19:56;;;;;;;9.60;5.63;;;17.40;99.90;;;;;;5071445;28;20206;-75
2021/09/18 00:22:23;;;;;;;4.43;4.03;;;17.40;99.90;;;;;;5072177;28;20206;-72
2021/09/18 00:24:50;;;;;;;5.97;4.57;;;17.50;99.90;;;;;;5071936;28;20210;-74
2021/09/18 00:27:18;;;;;;;5.95;4.35;;;17.50;99.90;;;;;;5072059;28;20206;-74
2021/09/18 00:29:45;;;;;;;7.55;5.25;;;17.50;99.90;;;;;;5071863;28;20240;-74
2021/09/18 00:32:12;;;;;;;5.20;4.30;;;17.40;99.90;;;;;;5071001;28;20221;-74
2021/09/18 00:34:39;;;;;;;6.13;4.80;;;17.40;99.90;;;;;;5071501;28;20359;-73
2021/09/18 00:37:06;;;;;;;4.63;4.22;;;17.40;99.90;;;;;;5070934;28;20640;-76
2021/09/18 00:39:33;;;;;;;5.75;4.03;;;17.30;99.90;;;;;;5071732;28;20214;-74
2021/09/18 00:42:00;;;;;;;5.32;4.38;;;17.30;99.90;;;;;;5071025;28;20264;-74
2021/09/18 00:44:30;;;;;;;7.65;4.45;;;17.40;99.90;;;;;;5071184;28;20206;-73
2021/09/18 00:46:58;;;;;;;7.95;4.43;;;17.30;99.90;;;;;;5070958;28;20626;-73
2021/09/18 00:49:25;;;;;;;4.65;4.25;;;17.30;99.90;;;;;;5071088;28;20225;-73
2021/09/18 00:51:52;;;;;;;6.43;4.55;;;17.40;99.90;;;;;;5071167;28;20210;-72
2021/09/18 00:54:19;;;;;;;5.03;4.55;;;17.30;99.90;;;;;;5071121;28;20218;-74
2021/09/18 00:56:46;;;;;;;5.88;5.22;;;17.20;99.90;;;;;;5071473;28;20251;-74
2021/09/18 00:59:13;;;;;;;6.05;5.15;;;17.30;99.90;;;;;;5070590;28;20730;-72
2021/09/18 01:01:41;;;;;;;7.72;4.15;;;17.30;99.90;;;;;;5071135;28;20214;-73
2021/09/18 01:04:09;;;;;;;6.05;4.53;;;17.30;99.90;;;;;;5070480;28;20261;-73
2021/09/18 01:06:36;;;;;;;4.95;4.25;;;17.20;99.90;;;;;;5071028;28;20205;-73
2021/09/18 01:09:03;;;;;;;6.18;4.93;;;17.20;99.90;;;;;;5070610;28;20627;-73
2021/09/18 01:11:30;;;;;;;6.45;3.88;;;17.30;99.90;;;;;;5070833;28;20263;-73
2021/09/18 01:13:58;;;;;;;5.40;4.00;;;17.20;99.90;;;;;;5070524;28;20320;-73
2021/09/18 01:16:25;;;;;;;5.65;4.63;;;17.10;99.90;;;;;;5071167;28;20284;-73
2021/09/18 01:18:54;;;;;;;7.05;5.13;;;17.20;99.90;;;;;;5070120;28;20233;-73
2021/09/18 01:21:21;;;;;;;6.82;5.38;;;17.30;99.90;;;;;;5071090;28;20207;-73
2021/09/18 01:23:49;;;;;;;6.30;4.38;;;17.10;99.90;;;;;;5070611;28;20199;-73
2021/09/18 01:26:16;;;;;;;6.00;5.07;;;17.10;99.90;;;;;;5070691;28;20749;-73
2021/09/18 01:28:43;;;;;;;4.65;4.13;;;17.10;99.90;;;;;;5070561;28;20210;-73
2021/09/18 01:31:11;;;;;;;6.60;5.78;;;17.10;99.90;;;;;;5070616;28;20210;-73
2021/09/18 01:33:38;;;;;;;5.72;4.93;;;17.00;99.90;;;;;;5070496;28;20205;-73
2021/09/18 01:36:05;;;;;;;5.53;4.78;;;17.00;99.90;;;;;;5070241;28;20210;-73
2021/09/18 01:38:32;;;;;;;5.03;4.43;;;17.00;99.90;;;;;;5070729;28;20279;-73
2021/09/18 01:41:01;;;;;;;7.38;5.05;;;17.00;99.90;;;;;;5069786;28;20252;-73
2021/09/18 01:43:29;;;;;;;5.53;4.72;;;17.00;99.90;;;;;;5070559;28;20260;-73
2021/09/18 01:45:56;;;;;;;6.22;4.35;;;17.00;99.90;;;;;;5069609;28;20212;-73
2021/09/18 01:48:23;;;;;;;6.47;5.28;;;17.00;99.90;;;;;;5070719;28;20267;-73
2021/09/18 01:50:55;;;;;;;4.40;4.00;;;17.00;99.90;;;;;;5070232;28;20213;-73
2021/09/18 01:53:24;;;;;;;5.97;4.30;;;16.90;99.90;;;;;;5070455;28;20214;-73
2021/09/18 01:55:52;;;;;;;4.45;4.05;;;16.90;99.90;;;;;;5070062;28;20221;-73
2021/09/18 01:58:21;;;;;;;6.22;5.05;;;16.90;99.90;;;;;;5070630;28;20229;-72
2021/09/18 02:00:50;;;;;;;6.90;4.65;;;16.90;99.90;;;;;;5068905;28;20210;-73
2021/09/18 02:03:18;;;;;;;5.38;4.43;;;16.90;99.90;;;;;;5070254;28;20232;-73
2021/09/18 02:05:45;;;;;;;4.05;3.65;;;16.90;99.90;;;;;;5070514;28;20202;-74
2021/09/18 02:08:13;;;;;;;5.20;4.70;;;16.90;99.90;;;;;;5069562;28;20213;-73
2021/09/18 02:10:40;;;;;;;5.72;5.22;;;16.90;99.90;;;;;;5070357;28;20218;-73
2021/09/18 02:13:09;;;;;;;5.53;4.88;;;16.90;99.90;;;;;;5069900;28;20202;-73
2021/09/18 02:15:38;;;;;;;5.63;5.00;;;16.90;99.90;;;;;;5070388;28;20205;-73
2021/09/18 02:18:05;;;;;;;5.75;5.20;;;16.90;99.90;;;;;;5069301;28;20600;-73
2021/09/18 02:20:33;;;;;;;6.13;4.53;;;16.80;99.90;;;;;;5070008;28;20259;-73
2021/09/18 02:23:00;;;;;;;8.32;4.93;;;16.80;99.90;;;;;;5069748;28;20202;-73
2021/09/18 02:25:28;;;;;;;4.50;4.10;;;16.60;99.90;;;;;;5070434;28;20263;-73
2021/09/18 02:27:55;;;;;;;5.97;4.90;;;16.60;99.90;;;;;;5069677;28;20206;-75
2021/09/18 02:30:26;;;;;;;5.15;4.07;;;16.70;99.90;;;;;;5070155;28;20206;-73
2021/09/18 02:32:55;;;;;;;7.38;5.30;;;16.70;99.90;;;;;;5069333;28;20214;-74
2021/09/18 02:35:24;;;;;;;6.55;5.38;;;16.70;99.90;;;;;;5070813;28;20256;-74
2021/09/18 02:37:52;;;;;;;6.35;4.68;;;16.70;99.90;;;;;;5073998;28;20234;-74
2021/09/18 02:40:20;;;;;;;7.53;5.05;;;16.70;99.90;;;;;;5073536;28;20210;-74
2021/09/18 02:42:49;;;;;;;5.97;5.13;;;16.80;99.90;;;;;;5074014;28;20210;-74
2021/09/18 02:45:16;;;;;;;7.95;4.10;;;16.90;99.90;;;;;;5073323;28;20629;-74
2021/09/18 02:47:44;;;;;;;10.57;4.70;;;16.80;99.90;;;;;;5073607;28;20218;-74
2021/09/18 02:50:14;;;;;;;8.02;5.93;;;16.80;99.90;;;;;;5073221;28;20210;-74
2021/09/18 02:52:41;;;;;;;6.60;5.05;;;16.80;99.90;;;;;;5073594;28;20267;-74
2021/09/18 02:55:10;;;;;;;7.18;5.68;;;16.90;99.90;;;;;;5073183;28;20207;-74
2021/09/18 02:57:37;;;;;;;6.35;5.70;;;16.90;99.90;;;;;;5073523;28;20649;-74
2021/09/18 03:00:05;;;;;;;7.60;5.25;;;16.90;99.90;;;;;;5072860;28;20267;-74
2021/09/18 03:02:32;;;;;;;9.32;5.50;;;16.90;99.90;;;;;;5073473;28;20641;-75
2021/09/18 03:04:59;;;;;;;7.10;4.65;;;16.90;99.90;;;;;;5073167;28;20252;-75
2021/09/18 03:07:28;;;;;;;5.60;5.07;;;16.90;99.90;;;;;;5072985;28;20206;-74
2021/09/18 03:09:55;;;;;;;7.22;4.70;;;16.90;99.90;;;;;;5072796;28;20251;-73
2021/09/18 03:12:22;;;;;;;6.72;4.93;;;17.00;99.90;;;;;;5073231;28;20607;-74
2021/09/18 03:14:49;;;;;;;4.97;4.57;;;16.90;99.90;;;;;;5073134;28;20271;-74
2021/09/18 03:17:15;;;;;;;7.15;4.32;;;17.00;99.90;;;;;;5073075;28;20206;-74
2021/09/18 03:19:42;;;;;;;5.68;4.68;;;16.90;99.90;;;;;;5073419;28;20241;-74
2021/09/18 03:22:09;;;;;;;7.45;5.43;;;16.90;99.90;;;;;;5072644;28;20214;-73
2021/09/18 03:24:38;;;;;;;6.45;5.20;;;16.90;99.90;;;;;;5072966;28;20256;-73
2021/09/18 03:27:05;;;;;;;8.68;5.05;;;16.90;99.90;;;;;;5072814;28;20263;-74
2021/09/18 03:29:32;;;;;;;4.45;4.07;;;16.90;99.90;;;;;;5072660;28;20202;-74
2021/09/18 03:31:59;;;;;;;7.25;5.18;;;16.80;99.90;;;;;;5072500;28;20252;-73
2021/09/18 03:34:26;;;;;;;7.78;5.57;;;16.80;99.90;;;;;;5072646;28;20665;-73
2021/09/18 03:36:53;;;;;;;5.78;4.20;;;16.70;99.90;;;;;;5072605;28;20631;-74
2021/09/18 03:39:20;;;;;;;5.90;5.15;;;16.70;99.90;;;;;;5072442;28;20233;-73
2021/09/18 03:41:48;;;;;;;5.32;4.82;;;16.70;99.90;;;;;;5073166;28;20260;-73
2021/09/18 03:44:15;;;;;;;5.45;3.92;;;16.80;99.90;;;;;;5072652;28;20214;-72
2021/09/18 03:46:42;;;;;;;7.13;4.78;;;16.80;99.90;;;;;;5071915;28;20198;-72
2021/09/18 03:49:09;;;;;;;7.07;5.18;;;16.90;99.90;;;;;;5072431;28;20650;-70
2021/09/18 03:51:36;;;;;;;4.93;4.32;;;16.90;99.90;;;;;;5072531;28;20198;-71
2021/09/18 03:54:03;;;;;;;6.47;4.75;;;16.90;99.90;;;;;;5071899;28;20561;-70
2021/09/18 03:56:30;;;;;;;6.00;5.32;;;17.00;99.90;;;;;;5071860;28;20631;-71
2021/09/18 03:58:59;;;;;;;4.90;4.50;;;17.00;99.90;;;;;;5072161;28;20230;-72
2021/09/18 04:01:26;;;;;;;4.40;4.00;;;16.90;99.90;;;;;;5072021;28;20738;-72
2021/09/18 04:03:53;;;;;;;4.85;4.45;;;17.00;99.90;;;;;;5072024;28;20279;-72
2021/09/18 04:06:20;;;;;;;6.35;4.82;;;17.00;99.90;;;;;;5072491;28;20645;-72
2021/09/18 04:08:46;;;;;;;7.40;5.15;;;16.90;99.90;;;;;;5072019;28;20206;-72
2021/09/18 04:11:13;;;;;;;5.95;4.60;;;16.90;99.90;;;;;;5071451;28;20562;-72
2021/09/18 04:13:40;;;;;;;5.20;4.57;;;16.90;99.90;;;;;;5072321;28;20272;-73
2021/09/18 04:16:09;;;;;;;10.00;4.63;;;16.90;99.90;;;;;;5071357;28;20618;-72
2021/09/18 04:18:36;;;;;;;5.97;5.40;;;17.00;99.90;;;;;;5071981;28;20226;-72
2021/09/18 04:21:03;;;;;;;5.10;4.00;;;17.00;99.90;;;;;;5071569;28;20272;-72
2021/09/18 04:23:32;;;;;;;5.97;4.00;;;16.90;99.90;;;;;;5071966;28;20263;-72
2021/09/18 04:25:59;;;;;;;4.53;4.13;;;16.70;99.90;;;;;;5071323;28;20584;-71
2021/09/18 04:28:26;;;;;;;4.93;3.95;;;16.70;99.90;;;;;;5071991;28;20206;-72
2021/09/18 04:30:53;;;;;;;5.78;5.10;;;16.60;99.90;;;;;;5071322;28;20253;-72
2021/09/18 04:33:22;;;;;;;7.45;4.10;;;16.60;99.90;;;;;;5071825;28;20210;-72
2021/09/18 04:35:49;;;;;;;5.30;4.55;;;16.40;99.90;;;;;;5071903;28;20802;-72
2021/09/18 04:38:15;;;;;;;4.93;4.28;;;16.50;99.90;;;;;;5071202;28;20230;-72
2021/09/18 04:40:43;;;;;;;4.10;3.70;;;16.50;99.90;;;;;;5071528;28;20256;-74
2021/09/18 04:43:10;;;;;;;4.75;4.22;;;16.50;99.90;;;;;;5071049;28;20217;-73
2021/09/18 04:45:37;;;;;;;8.85;4.15;;;16.50;99.90;;;;;;5071986;28;20634;-73
2021/09/18 04:48:04;;;;;;;5.90;4.07;;;16.50;99.90;;;;;;5070892;28;20238;-74
2021/09/18 04:50:32;;;;;;;6.38;4.35;;;16.60;99.90;;;;;;5071344;28;20210;-74
2021/09/18 04:52:59;;;;;;;5.65;4.28;;;16.60;99.90;;;;;;5070541;28;20214;-74
2021/09/18 04:55:26;;;;;;;7.43;4.05;;;16.50;99.90;;;;;;5070649;28;20214;-73
2021/09/18 04:57:53;;;;;;;4.97;3.95;;;16.40;99.90;;;;;;5070239;28;20206;-73
2021/09/18 05:00:21;;;;;;;4.25;3.85;;;16.40;99.90;;;;;;5072156;28;20275;-73
2021/09/18 05:02:48;;;;;;;7.03;4.43;;;16.40;99.90;;;;;;5077992;28;20668;-73
2021/09/18 05:05:15;;;;;;;4.20;3.72;;;16.40;99.90;;;;;;5067554;28;20206;-73
2021/09/18 05:07:44;;;;;;;4.68;4.28;;;16.40;99.90;;;;;;5053229;28;20261;-74
2021/09/18 05:10:11;;;;;;;4.68;4.20;;;16.50;99.90;;;;;;5063664;28;20583;-73
2021/09/18 05:12:38;;;;;;;6.05;4.78;;;16.50;99.90;;;;;;5060413;28;20206;-74
2021/09/18 05:15:06;;;;;;;5.70;4.72;;;16.50;99.90;;;;;;5063101;28;20203;-73
2021/09/18 05:17:33;;;;;;;6.82;5.68;;;16.40;99.90;;;;;;5076099;28;20257;-71
2021/09/18 05:20:01;;;;;;;11.15;6.18;;;16.40;99.90;;;;;;5069983;28;20275;-73
2021/09/18 05:22:28;;;;;;;5.13;4.15;;;16.50;99.90;;;;;;5070909;28;20222;-72
2021/09/18 05:24:56;;;;;;;5.25;4.78;;;16.50;99.90;;;;;;5069963;28;20198;-79
2021/09/18 05:27:23;;;;;;;5.88;5.28;;;16.50;99.90;;;;;;5070804;28;20259;-74
2021/09/18 05:29:50;;;;;;;6.22;4.95;;;16.50;99.90;;;;;;5070617;28;20252;-78
2021/09/18 05:32:17;;;;;;;8.80;5.57;;;16.60;99.90;;;;;;5070678;28;20202;-74
2021/09/18 05:34:44;;;;;;;5.15;4.05;;;16.70;99.90;;;;;;5070303;28;20206;-76
2021/09/18 05:37:11;;;;;;;5.35;4.85;;;16.70;99.90;;;;;;5069783;28;20252;-74
2021/09/18 05:39:38;;;;;;;6.13;4.97;;;16.70;99.90;;;;;;5068442;28;20226;-74
2021/09/18 05:42:08;;;;;;;6.80;5.22;;;16.80;99.90;;;;;;5069847;28;20247;-75
2021/09/18 05:44:35;;;;;;;5.63;4.53;;;16.90;99.90;;;;;;5076112;28;20205;-74
2021/09/18 05:47:03;;;;;;;5.80;5.20;;;17.00;99.90;;;;;;5073449;28;20259;-73
2021/09/18 05:49:30;;;;;;;6.38;5.68;;;17.00;99.90;;;;;;5076416;28;20232;-73
2021/09/18 05:51:57;;;;;;;6.10;4.68;;;17.10;99.90;;;;;;5071129;28;20260;-72
2021/09/18 05:54:24;;;;;;;7.07;5.00;;;17.10;99.90;;;;;;5074502;28;20245;-73
2021/09/18 05:56:51;;;;;;;6.47;5.05;;;17.20;99.90;;;;;;5071611;28;20198;-73
2021/09/18 05:59:19;;;;;;;5.43;4.80;;;17.30;99.90;;;;;;5070522;28;20303;-73
2021/09/18 06:01:46;;;;;;;7.45;4.78;;;17.30;99.90;;;;;;5073159;28;20669;-73
2021/09/18 06:04:13;;;;;;;7.82;5.18;;;17.20;99.90;;;;;;5069864;28;20206;-72
2021/09/18 06:06:40;;;;;;;8.80;5.32;;;17.20;99.90;;;;;;5071343;28;20210;-73
2021/09/18 06:09:07;;;;;;;6.53;5.65;;;17.10;99.90;;;;;;5073430;28;20256;-73
2021/09/18 06:11:34;;;;;;;11.93;5.55;;;17.10;99.90;;;;;;5075085;28;20206;-73
2021/09/18 06:14:01;;;;;;;8.52;6.65;;;17.20;99.90;;;;;;5066943;28;20248;-75
2021/09/18 06:16:30;;;;;;;5.85;5.25;;;17.40;99.90;;;;;;5079477;28;20210;-76
2021/09/18 06:18:57;;;;;;;7.18;4.57;;;17.60;99.90;;;;;;5077067;28;20230;-75
2021/09/18 06:21:24;;;;;;;7.00;5.72;;;17.80;99.90;;;;;;5073744;28;20719;-80
2021/09/18 06:23:51;;;;;;;4.75;4.25;;;17.90;99.90;;;;;;5073860;28;20202;-77
2021/09/18 06:26:18;;;;;;;6.18;5.10;;;18.00;99.90;;;;;;5073178;28;20677;-75
2021/09/18 06:28:45;;;;;;;5.75;4.95;;;18.20;99.90;;;;;;5073717;28;20202;-79
2021/09/18 06:31:12;;;;;;;6.05;4.97;;;18.40;99.90;;;;;;5072937;28;20206;-75
2021/09/18 06:33:41;;;;;;;6.72;5.25;;;18.40;99.90;;;;;;5073793;28;20802;-75
2021/09/18 06:36:08;;;;;;;6.25;5.75;;;18.50;99.90;;;;;;5073069;28;20198;-76
2021/09/18 06:38:35;;;;;;;4.68;4.28;;;18.50;99.90;;;;;;5073529;28;20665;-76
2021/09/18 06:41:02;;;;;;;11.95;6.57;;;18.50;99.90;;;;;;5073641;28;20202;-77
2021/09/18 06:43:29;;;;;;;6.18;5.57;;;18.40;99.90;;;;;;5073883;28;20209;-79
2021/09/18 06:45:57;;;;;;;6.95;5.30;;;18.20;99.90;;;;;;5073604;28;20202;-76
2021/09/18 06:48:24;;;;;;;7.18;5.40;;;18.00;99.90;;;;;;5073372;28;20620;-79
2021/09/18 06:50:52;;;;;;;6.72;6.03;;;17.90;99.90;;;;;;5073399;28;20210;-76
2021/09/18 06:53:19;;;;;;;7.53;6.00;;;17.90;99.90;;;;;;5073357;28;20272;-76
2021/09/18 06:55:46;;;;;;;6.80;5.70;;;17.90;99.90;;;;;;5073460;28;20673;-76
2021/09/18 06:58:13;;;;;;;7.40;5.72;;;18.00;99.90;;;;;;5070546;28;20210;-75
2021/09/18 07:00:40;;;;;;;7.70;4.80;;;18.00;99.90;;;;;;5073290;28;20290;-75
2021/09/18 07:03:07;;;;;;;9.35;6.05;;;18.00;99.90;;;;;;5072641;28;20210;-76
2021/09/18 07:05:34;;;;;;;7.80;5.25;;;17.90;99.90;;;;;;5072999;28;20210;-80
2021/09/18 07:08:03;;;;;;;5.75;5.13;;;17.90;99.90;;;;;;5065505;28;20260;-77
2021/09/18 07:10:30;;;;;;;7.60;5.00;;;17.90;99.90;;;;;;5072846;28;20737;-76
2021/09/18 07:12:58;;;;;;;6.35;5.72;;;18.00;99.90;;;;;;5073078;28;20210;-76
2021/09/18 07:15:26;;;;;;;5.28;4.75;;;18.10;99.90;;;;;;5073433;28;20245;-76
2021/09/18 07:17:53;;;;;;;6.72;5.20;;;18.10;99.90;;;;;;5072796;28;20199;-76
2021/09/18 07:20:20;;;;;;;13.02;5.82;;;18.20;99.90;;;;;;5072932;28;20260;-76
2021/09/18 07:22:47;;;;;;;6.53;5.35;;;18.30;99.90;;;;;;5072606;28;20210;-79
2021/09/18 07:25:15;;;;;;;6.55;5.93;;;18.30;99.90;;;;;;5073043;28;20555;-75
2021/09/18 07:27:43;;;;;;;7.13;5.65;;;18.40;99.90;;;;;;5073009;28;20211;-75
2021/09/18 07:30:10;;;;;;;6.80;4.82;;;18.80;99.90;;;;;;5072654;28;20252;-80
2021/09/18 07:32:37;;;;;;;9.88;8.88;;;19.30;99.90;;;;;;5072933;28;20210;-78
2021/09/18 07:35:06;;;;;;;6.05;5.07;;;19.70;99.90;;;;;;5072326;28;20259;-75
2021/09/18 07:37:35;;;;;;;7.97;5.38;;;19.60;99.90;;;;;;5072779;28;20242;-76
2021/09/18 07:40:02;;;;;;;5.07;4.00;;;19.50;99.90;;;;;;5058652;28;20230;-77
2021/09/18 07:42:30;;;;;;;5.18;4.68;;;19.40;99.90;;;;;;5072601;28;20669;-76
2021/09/18 07:44:57;;;;;;;4.82;4.28;;;19.40;99.90;;;;;;5071937;28;20251;-77
2021/09/18 07:47:24;;;;;;;3.95;3.47;;;19.20;99.90;;;;;;5072716;28;20255;-77
2021/09/18 07:49:51;;;;;;;4.45;3.60;;;19.30;99.90;;;;;;5072002;28;20256;-77
2021/09/18 07:52:18;;;;;;;3.53;3.03;;;19.40;99.90;;;;;;5073047;28;20638;-76
2021/09/18 07:54:45;;;;;;;5.93;3.38;;;19.50;99.90;;;;;;5061301;28;20203;-75
2021/09/18 07:57:12;;;;;;;5.28;3.72;;;19.40;99.90;;;;;;5072007;28;20210;-75
2021/09/18 07:59:41;;;;;;;3.60;3.10;;;19.20;99.90;;;;;;5072390;28;20275;-77
2021/09/18 08:02:08;;;;;;;4.22;3.25;;;19.10;99.90;;;;;;5072060;28;20267;-76
2021/09/18 08:04:35;;;;;;;4.22;3.83;;;19.10;99.90;;;;;;5071769;28;20255;-75
2021/09/18 08:07:03;;;;;;;4.35;3.58;;;19.40;99.90;;;;;;5071777;28;20262;-78
2021/09/18 08:09:30;;;;;;;4.60;3.83;;;20.00;99.90;;;;;;5071897;28;20235;-76
2021/09/18 08:11:57;;;;;;;3.10;2.78;;;20.20;99.90;;;;;;5071903;28;20673;-75
2021/09/18 08:14:25;;;;;;;5.00;3.47;;;20.10;99.90;;;;;;5071952;28;20283;-75
2021/09/18 08:16:54;;;;;;;3.00;2.80;;;20.00;99.90;;;;;;5071811;28;20218;-75
2021/09/18 08:19:21;;;;;;;4.75;3.80;;;19.60;99.90;;;;;;5071475;28;20685;-75
2021/09/18 08:21:49;;;;;;;5.47;3.65;;;19.30;99.90;;;;;;5072574;28;20298;-76
2021/09/18 08:24:17;;;;;;;3.58;3.28;;;19.10;99.90;;;;;;5071818;28;20202;-75
2021/09/18 08:26:45;;;;;;;4.32;3.45;;;18.90;99.90;;;;;;5072025;28;20238;-78
2021/09/18 08:29:12;;;;;;;4.88;3.72;;;18.80;99.90;;;;;;5071205;28;20272;-76
2021/09/18 08:31:39;;;;;;;4.68;3.70;;;18.80;99.90;;;;;;5071733;28;20264;-76
2021/09/18 08:34:07;;;;;;;3.30;2.95;;;18.70;99.90;;;;;;5070151;28;20243;-75
2021/09/18 08:36:34;;;;;;;4.28;3.00;;;18.60;99.90;;;;;;5071380;28;20677;-75
2021/09/18 08:39:01;;;;;;;4.68;3.13;;;18.50;99.90;;;;;;5071336;28;20625;-74
2021/09/18 08:41:30;;;;;;;6.32;4.35;;;18.40;99.90;;;;;;5071485;28;20291;-75
2021/09/18 08:43:58;;;;;;;6.97;5.63;;;18.30;99.90;;;;;;5071272;28;20662;-73
2021/09/18 08:46:26;;;;;;;7.97;5.47;;;18.30;99.90;;;;;;5071273;28;20267;-77
2021/09/18 08:48:55;;;;;;;5.90;5.30;;;18.40;99.90;;;;;;5071001;28;20210;-75
2021/09/18 08:51:25;;;;;;;8.10;5.68;;;18.40;99.90;;;;;;5071144;28;20748;-76
2021/09/18 08:53:52;;;;;;;7.60;6.22;;;18.40;99.90;;;;;;5071074;28;20202;-74
2021/09/18 08:56:20;;;;;;;5.75;4.80;;;18.40;99.90;;;;;;5071419;28;20251;-74
2021/09/18 08:58:47;;;;;;;4.97;4.43;;;18.30;99.90;;;;;;5071500;28;20209;-76
2021/09/18 09:01:15;;;;;;;2.85;2.53;;;18.20;99.90;;;;;;5070753;28;20234;-74
2021/09/18 09:03:42;;;;;;;3.10;2.80;;;18.20;99.90;;;;;;5071113;28;20275;-74
2021/09/18 09:06:11;;;;;;;5.55;2.58;;;18.20;99.90;;;;;;5070743;28;20692;-77
2021/09/18 09:08:40;;;;;;;4.13;2.53;;;18.20;99.90;;;;;;5071059;28;20210;-74
2021/09/18 09:11:20;;;;;;;3.55;2.00;;;18.00;99.90;;;;;;5056848;28;20295;-77
2021/09/18 09:13:59;;;;;;;2.90;1.83;;;18.00;99.90;;;;;;5071331;28;20297;-76
2021/09/18 09:16:27;;;;;;;3.55;2.10;;;18.00;99.90;;;;;;5070735;28;20263;-74
2021/09/18 09:18:54;;;;;;;2.78;1.90;;;18.10;99.90;;;;;;5070176;28;20669;-74
2021/09/18 09:21:25;;;;;;;3.03;2.30;;;18.20;99.90;;;;;;5070797;28;20230;-77
2021/09/18 09:24:10;;;;;;;2.17;1.80;;;18.30;99.90;;;;;;5070798;28;20259;-75
2021/09/18 09:26:39;;;;;;;1.50;1.33;;;18.30;99.90;;;;;;5070832;28;20375;-78
2021/09/18 09:29:06;;;;;;;2.08;1.60;;;18.40;99.90;;;;;;5070333;28;20260;-74
2021/09/18 09:31:36;;;;;;;1.52;1.40;;;18.50;99.90;;;;;;5070608;28;20209;-77
2021/09/18 09:34:10;;;;;;;2.40;1.73;;;18.60;99.90;;;;;;5070401;28;20268;-76
2021/09/18 09:36:39;;;;;;;1.55;1.35;;;18.60;99.90;;;;;;5070779;28;20202;-78
2021/09/18 09:39:09;;;;;;;2.00;1.50;;;18.60;99.90;;;;;;5070433;28;20632;-78
2021/09/18 09:41:39;;;;;;;2.25;1.58;;;18.60;99.90;;;;;;5070455;28;20226;-74
2021/09/18 09:44:10;;;;;;;3.53;1.52;;;18.60;99.90;;;;;;5069776;28;20215;-77
2021/09/18 09:46:37;;;;;;;1.73;1.63;;;18.60;99.90;;;;;;5070247;28;20202;-78
2021/09/18 09:49:17;;;;;;;2.08;1.88;;;18.60;99.90;;;;;;5070265;28;20247;-74
2021/09/18 09:51:45;;;;;;;1.38;1.27;;;18.60;99.90;;;;;;5070723;28;20201;-79
2021/09/18 09:54:18;;;;;;;1.42;1.30;;;18.80;99.90;;;;;;5068483;28;20218;-74
2021/09/18 09:56:46;;;;;;;1.10;1.00;;;18.80;99.90;;;;;;5068170;28;20210;-78
2021/09/18 09:59:13;;;;;;;2.70;1.38;;;18.70;99.90;;;;;;5069740;28;20255;-74
2021/09/18 10:01:41;;;;;;;1.65;1.55;;;18.90;99.90;;;;;;5070200;28;20233;-74
2021/09/18 10:04:08;;;;;;;3.50;1.80;;;18.90;99.90;;;;;;5070039;28;20259;-75
2021/09/18 10:06:35;;;;;;;2.45;1.38;;;19.00;99.90;;;;;;5070382;28;20210;-78
2021/09/18 10:09:03;;;;;;;2.30;1.63;;;19.10;99.90;;;;;;5069840;28;20259;-78
2021/09/18 10:11:34;;;;;;;2.40;1.50;;;19.20;99.90;;;;;;5070031;28;20665;-74
2021/09/18 10:14:02;;;;;;;2.67;1.52;;;19.30;99.90;;;;;;5069609;28;20211;-74
2021/09/18 10:16:32;;;;;;;1.52;1.42;;;19.50;99.90;;;;;;5070581;28;20267;-78
2021/09/18 10:19:02;;;;;;;1.40;1.30;;;19.60;99.90;;;;;;5069781;28;20211;-79
2021/09/18 10:24:15;;;;;;;1.10;1.08;;;19.80;99.90;;;;;;5069847;28;20303;-76
2021/09/18 10:26:44;;;;;;;1.40;1.30;;;19.70;99.90;;;;;;5070347;28;20210;-74
2021/09/18 10:29:11;;;;;;;2.10;1.50;;;19.70;99.90;;;;;;5069222;28;20210;-74
2021/09/18 10:31:38;;;;;;;1.27;1.17;;;19.60;99.90;;;;;;5070021;28;20206;-77
2021/09/18 10:34:22;;;;;;;1.15;1.00;;;19.60;99.90;;;;;;5069579;28;20272;-78
2021/09/18 10:36:49;;;;;;;1.08;0.90;;;19.60;99.90;;;;;;5058074;28;20645;-74
2021/09/18 10:39:19;;;;;;;1.33;0.93;;;19.50;99.90;;;;;;5069812;28;20225;-78
2021/09/18 10:41:50;;;;;;;1.80;1.40;;;19.50;99.90;;;;;;5070343;28;20671;-78
2021/09/18 10:44:18;;;;;;;1.35;1.20;;;19.50;99.90;;;;;;5069813;28;20210;-78
2021/09/18 10:46:48;;;;;;;1.77;1.00;;;19.60;99.90;;;;;;5070271;28;20263;-78
2021/09/18 10:49:37;;;;;;;1.10;1.00;;;19.60;99.90;;;;;;5070230;28;20273;-73
2021/09/18 10:52:33;;;;;;;1.08;0.95;;;19.50;99.90;;;;;;5069558;28;20206;-73
2021/09/18 10:55:11;;;;;;;1.45;1.35;;;19.30;99.90;;;;;;5045458;28;20228;-74
2021/09/18 10:58:10;;;;;;;0.70;0.70;;;19.30;99.90;;;;;;5072525;28;20989;-79
2021/09/18 11:00:50;;;;;;;2.45;1.13;;;19.30;99.90;;;;;;5064947;28;20316;-74
2021/09/18 11:03:37;;;;;;;1.98;1.20;;;19.30;99.90;;;;;;5073784;28;20617;-79
2021/09/18 11:06:05;;;;;;;1.02;0.93;;;19.40;99.90;;;;;;5073259;28;20635;-78
2021/09/18 11:08:35;;;;;;;1.23;0.90;;;19.50;99.90;;;;;;5073356;28;20263;-75
2021/09/18 11:11:10;;;;;;;1.05;1.00;;;19.30;99.90;;;;;;5072741;28;20592;-78
2021/09/18 11:13:40;;;;;;;0.85;0.60;;;19.20;99.90;;;;;;5073013;28;20296;-79
2021/09/18 11:16:23;;;;;;;0.98;0.90;;;19.00;99.90;;;;;;5072714;28;20199;-76
2021/09/18 11:19:01;;;;;;;0.88;0.60;;;19.00;99.90;;;;;;5071510;28;20256;-76
2021/09/18 11:21:35;;;;;;;1.10;1.00;;;18.90;99.90;;;;;;5060500;28;20243;-77
2021/09/18 11:24:03;;;;;;;1.17;1.02;;;19.20;99.90;;;;;;5072363;28;20661;-80
2021/09/18 11:26:45;;;;;;;1.25;1.15;;;19.70;99.90;;;;;;5073171;28;20206;-79
2021/09/18 11:29:36;;;;;;;1.63;0.77;;;19.80;99.90;;;;;;5072552;28;20210;-76
2021/09/18 11:32:12;;;;;;;1.08;0.98;;;19.80;99.90;;;;;;5072494;28;20669;-76
2021/09/18 11:34:44;;;;;;;1.15;1.00;;;19.80;99.90;;;;;;5072606;28;20205;-76
2021/09/18 11:37:19;;;;;;;1.45;0.90;;;19.80;99.90;;;;;;5072273;28;21023;-76
2021/09/18 11:39:55;;;;;;;9.05;2.20;;;19.80;99.90;;;;;;5072805;28;20198;-80
2021/09/18 11:42:28;;;;;;;1.27;0.85;;;19.80;99.90;;;;;;5072539;28;20229;-79
2021/09/18 11:45:00;;;;;;;1.65;1.00;;;19.90;99.90;;;;;;5072188;28;20202;-80
2021/09/18 11:47:31;;;;;;;2.15;1.45;;;19.90;99.90;;;;;;5072761;28;20206;-75
2021/09/18 11:49:58;;;;;;;0.90;0.75;;;20.00;99.90;;;;;;5072210;28;20256;-75
2021/09/18 11:52:36;;;;;;;0.60;0.57;;;20.10;99.90;;;;;;5072520;28;20221;-80
2021/09/18 11:55:07;;;;;;;2.47;0.80;;;19.90;99.90;;;;;;5070529;28;20206;-79
2021/09/18 11:57:35;;;;;;;0.63;0.60;;;19.90;99.90;;;;;;5062665;28;20669;-79
2021/09/18 12:00:18;;;;;;;1.02;0.82;;;20.00;99.90;;;;;;5071645;28;20711;-75
2021/09/18 12:02:45;;;;;;;3.72;1.13;;;20.40;99.90;;;;;;5072651;28;20627;-75
2021/09/18 12:05:19;;;;;;;1.13;0.70;;;20.40;99.90;;;;;;5071946;28;20270;-74
2021/09/18 12:07:51;;;;;;;1.23;0.82;;;20.10;99.90;;;;;;5072968;28;20206;-76
2021/09/18 12:10:19;;;;;;;1.90;1.30;;;19.70;99.90;;;;;;5071961;28;20761;-75
2021/09/18 12:12:49;;;;;;;1.38;1.13;;;19.60;99.90;;;;;;5072384;28;20267;-75
2021/09/18 12:15:17;;;;;;;0.75;0.60;;;19.80;99.90;;;;;;5071962;28;20236;-74
2021/09/18 12:17:44;;;;;;;0.43;0.40;;;19.90;99.90;;;;;;5072012;28;20651;-75
2021/09/18 12:20:13;;;;;;;0.75;0.50;;;20.00;99.90;;;;;;5071657;28;20217;-76
2021/09/18 12:22:40;;;;;;;2.28;1.00;;;20.20;99.90;;;;;;5071687;28;20242;-75
2021/09/18 12:25:08;;;;;;;0.70;0.55;;;20.30;99.90;;;;;;5071413;28;20238;-80
2021/09/18 12:27:37;;;;;;;1.42;0.80;;;20.30;99.90;;;;;;5071839;28;20264;-74
2021/09/18 12:30:08;;;;;;;0.75;0.60;;;20.40;99.90;;;;;;5071384;28;20206;-79
2021/09/18 12:32:37;;;;;;;0.50;0.50;;;20.70;99.90;;;;;;5071414;28;20201;-80
2021/09/18 12:35:07;;;;;;;1.60;0.52;;;20.90;99.90;;;;;;5071313;28;20206;-74
2021/09/18 12:37:36;;;;;;;0.52;0.50;;;21.10;99.90;;;;;;5071658;28;20272;-79
2021/09/18 12:40:16;;;;;;;1.75;1.05;;;21.00;99.90;;;;;;5071329;28;20268;-74
2021/09/18 12:42:43;;;;;;;0.68;0.68;;;20.90;99.90;;;;;;5071454;28;20237;-77
2021/09/18 12:45:24;;;;;;;2.17;0.75;;;20.80;99.90;;;;;;5071415;28;20214;-76
2021/09/18 12:48:11;;;;;;;2.35;0.75;;;20.50;99.90;;;;;;5071057;28;20297;-74
2021/09/18 12:50:52;;;;;;;0.82;0.82;;;20.50;99.90;;;;;;5071368;28;20752;-74
2021/09/18 12:53:20;;;;;;;0.70;0.70;;;20.40;99.90;;;;;;5071167;28;20210;-74
2021/09/18 12:56:20;;;;;;;1.33;0.60;;;20.20;99.90;;;;;;5071856;28;20212;-78